Airfield :
LOGIN :

Register | Disclaimer

   EN    FR    IT 

 










Legend :    VFR   Marginal VFR   IFR   Intensive IFR   Very Intensive IFR
Visi :
Ceiling :
>= 8 km
>= 3000ft
5 to 8 km
1000 to 3000 ft
1500m to 5 km
500 to 1000 ft
800 to 1500m
200 to 500 ft
< 800m
< 200 ft
Symbols :   Thunderstorms  Fog  Heavy snow  Heavy precipitations  Wind > 20 kt
SIGMETs :     Misc.  Thunderstorms  Icing  Turbulence  Mountain Waves  Volcanic Ashes







- Airport Elevation : 909 ft
- IATA code : KSF


EDVK - Kassel Calden

CURRENT METAR :
  • 171850Z VRB02KT 7000 FEW002 SCT027 BKN045 02/02 Q1025

EXPIRED METARs :
  • 171820Z VRB02KT 8000 SCT024 BKN046 03/03 Q1025
  • 171750Z 25005KT 9000 SCT025 BKN046 03/03 Q1025
  • 171720Z 25004KT 8000 FEW025 BKN042 04/04 Q1025
  • 171650Z 23003KT 210V280 9999 FEW022 BKN033 03/03 Q1025
  • 171620Z 20003KT 180V270 9999 FEW024 SCT037 03/03 Q1025

TAF TAF EDVK
Valid from the 17 at 18:00 until the 18 at 03:00 UTC


171700Z 1718/1803 VRB02KT 9999 FEW015 SCT045
No reported NOTAMs for that airfield.



MET'MAP, your aeronautical weather chart ! - Copyright ORBIFLY December 2007 - Disclaimer

ORBIFLY MET'MAP TEAM :

Programming & Development : Alexandra Zaïnal
Concept & Development : Baudouin d'Aumeries
Co-Development & Prog : Marc-Olivier Méhu
Technical & hardware support : Manuel Goepfert

Contact : metmap@orbifly.com




SOURCES & CREDITS :

   NOAA